Time;durP1;ratioP1;P1;durP2;ratioP2;P2;SDS_P1;SDS_P2;PMS_P1;PMS_P2;Temp;Humidity;BMP_temperature;BMP_pressure;BME280_temperature;BME280_humidity;BME280_pressure;Samples;Min_cycle;Max_cycle;Signal;HPM_P1;HPM_P2
2023/09/18 00:00:26;;;;;;;66.90;45.05;;;;;;;;;;5022751;28;20085;-76
2023/09/18 00:02:52;;;;;;;59.47;44.40;;;;;;;;;;5019277;28;20587;-76
2023/09/18 00:05:18;;;;;;;47.90;37.22;;;;;;;;;;5018163;28;20080;-76
2023/09/18 00:07:44;;;;;;;50.90;39.97;;;;;;;;;;5015570;28;20203;-76
2023/09/18 00:10:14;;;;;;;51.30;38.75;;;;;;;;;;5019768;28;20132;-76
2023/09/18 00:12:40;;;;;;;60.08;46.95;;;;;;;;;;5023681;28;20045;-76
2023/09/18 00:15:08;;;;;;;64.13;48.17;;;;;;;;;;5020318;28;20041;-76
2023/09/18 00:17:35;;;;;;;59.42;45.65;;;;;;;;;;5003021;28;20404;-76
2023/09/18 00:20:01;;;;;;;61.65;45.17;;;;;;;;;;5019195;28;21280;-76
2023/09/18 00:22:28;;;;;;;56.20;41.83;;;;;;;;;;5021732;28;20685;-76
2023/09/18 00:24:54;;;;;;;64.40;45.03;;;;;;;;;;5019032;28;20167;-76
2023/09/18 00:27:20;;;;;;;64.88;44.63;;;;;;;;;;5015945;28;20584;-76
2023/09/18 00:29:46;;;;;;;55.17;41.70;;;;;;;;;;5023649;28;20049;-76
2023/09/18 00:32:12;;;;;;;63.78;46.00;;;;;;;;;;5017230;28;20048;-74
2023/09/18 00:34:38;;;;;;;62.75;45.00;;;;;;;;;;5019881;28;20045;-75
2023/09/18 00:37:05;;;;;;;69.00;51.28;;;;;;;;;;5002023;28;20585;-75
2023/09/18 00:39:31;;;;;;;78.15;56.72;;;;;;;;;;5017541;28;20488;-76
2023/09/18 00:41:57;;;;;;;80.30;60.55;;;;;;;;;;5021099;28;20074;-76
2023/09/18 00:44:26;;;;;;;93.70;64.15;;;;;;;;;;5021437;28;20037;-76
2023/09/18 00:46:55;;;;;;;89.78;64.65;;;;;;;;;;5022016;28;20048;-76
2023/09/18 00:49:21;;;;;;;100.65;70.70;;;;;;;;;;5021812;28;20064;-76
2023/09/18 00:51:47;;;;;;;110.80;73.45;;;;;;;;;;5016867;28;20049;-76
2023/09/18 00:54:16;;;;;;;123.97;79.90;;;;;;;;;;5019374;28;20257;-76
2023/09/18 00:56:42;;;;;;;133.10;80.40;;;;;;;;;;5021025;28;20057;-76
2023/09/18 00:59:08;;;;;;;135.65;84.07;;;;;;;;;;5019264;28;20049;-76
2023/09/18 01:01:35;;;;;;;136.02;83.78;;;;;;;;;;5003012;28;20456;-76
2023/09/18 01:04:01;;;;;;;132.57;85.13;;;;;;;;;;5023349;28;20041;-76
2023/09/18 01:06:30;;;;;;;126.57;81.93;;;;;;;;;;5008260;28;20678;-76
2023/09/18 01:08:56;;;;;;;128.30;81.75;;;;;;;;;;5027379;28;20279;-76
2023/09/18 01:11:36;;;;;;;118.93;79.20;;;;;;;;;;5020762;28;20055;-76
2023/09/18 01:14:25;;;;;;;114.88;75.25;;;;;;;;;;5014204;28;20082;-76
2023/09/18 01:16:57;;;;;;;94.03;68.63;;;;;;;;;;5013827;28;20065;-76
2023/09/18 01:19:39;;;;;;;87.22;66.40;;;;;;;;;;5021299;28;20240;-76
2023/09/18 01:22:09;;;;;;;87.30;65.20;;;;;;;;;;5021427;28;20048;-76
2023/09/18 01:24:36;;;;;;;86.18;63.75;;;;;;;;;;5019351;28;20048;-76
2023/09/18 01:27:05;;;;;;;88.53;64.93;;;;;;;;;;5022534;28;20076;-76
2023/09/18 01:29:32;;;;;;;91.40;67.25;;;;;;;;;;5018461;28;20931;-76
2023/09/18 01:31:58;;;;;;;82.85;63.15;;;;;;;;;;5000218;28;20152;-76
2023/09/18 01:34:36;;;;;;;87.18;63.55;;;;;;;;;;5002566;28;20392;-76
2023/09/18 01:37:03;;;;;;;81.93;60.10;;;;;;;;;;5019089;28;20135;-76
2023/09/18 01:39:31;;;;;;;80.25;58.85;;;;;;;;;;5017714;28;20834;-76
2023/09/18 01:42:05;;;;;;;74.60;57.15;;;;;;;;;;5009948;28;20048;-76
2023/09/18 01:44:31;;;;;;;72.25;55.28;;;;;;;;;;5018663;28;20048;-76
2023/09/18 01:46:59;;;;;;;75.63;56.45;;;;;;;;;;5006933;28;20040;-75
2023/09/18 01:49:34;;;;;;;73.28;55.63;;;;;;;;;;5022167;28;20044;-76
2023/09/18 01:52:00;;;;;;;71.88;55.13;;;;;;;;;;5024758;28;20072;-75
2023/09/18 01:54:26;;;;;;;68.30;53.00;;;;;;;;;;5025389;28;20049;-76
2023/09/18 01:56:53;;;;;;;70.47;53.53;;;;;;;;;;5031000;28;20209;-76
2023/09/18 01:59:19;;;;;;;64.18;50.90;;;;;;;;;;5029600;28;20480;-76
2023/09/18 02:01:45;;;;;;;67.90;49.55;;;;;;;;;;5028160;28;20210;-76
2023/09/18 02:04:12;;;;;;;60.58;48.35;;;;;;;;;;5029566;28;20538;-75
2023/09/18 02:06:38;;;;;;;58.85;47.90;;;;;;;;;;5011021;28;20144;-75
2023/09/18 02:09:04;;;;;;;61.50;48.30;;;;;;;;;;5028050;28;20052;-75
2023/09/18 02:11:30;;;;;;;57.47;45.38;;;;;;;;;;5023910;28;20086;-75
2023/09/18 02:13:56;;;;;;;51.45;44.88;;;;;;;;;;5015489;28;20036;-76
2023/09/18 02:16:24;;;;;;;55.08;46.17;;;;;;;;;;5022748;28;20041;-76
2023/09/18 02:18:50;;;;;;;58.47;47.30;;;;;;;;;;5018526;28;20050;-76
2023/09/18 02:21:20;;;;;;;64.03;46.85;;;;;;;;;;5019923;28;20105;-76
2023/09/18 02:23:49;;;;;;;56.08;44.47;;;;;;;;;;4993846;28;20048;-76
2023/09/18 02:26:16;;;;;;;55.80;45.92;;;;;;;;;;5020540;28;20049;-76
2023/09/18 02:28:42;;;;;;;57.75;44.83;;;;;;;;;;5018751;28;20055;-76
2023/09/18 02:31:08;;;;;;;52.13;44.80;;;;;;;;;;5019713;28;20040;-76
2023/09/18 02:33:34;;;;;;;55.92;45.15;;;;;;;;;;5002673;28;20048;-76
2023/09/18 02:36:00;;;;;;;52.45;41.78;;;;;;;;;;5021630;28;20067;-76
2023/09/18 02:38:27;;;;;;;52.78;42.92;;;;;;;;;;5018908;28;20175;-76
2023/09/18 02:40:53;;;;;;;50.45;42.03;;;;;;;;;;5019435;28;20048;-76
2023/09/18 02:43:20;;;;;;;50.05;43.83;;;;;;;;;;5022722;28;20069;-76
2023/09/18 02:45:46;;;;;;;49.67;42.97;;;;;;;;;;5024456;28;20443;-76
2023/09/18 02:48:12;;;;;;;47.83;41.13;;;;;;;;;;5022882;28;20102;-76
2023/09/18 02:50:38;;;;;;;46.15;41.15;;;;;;;;;;5021904;28;20039;-76
2023/09/18 02:53:06;;;;;;;43.97;39.33;;;;;;;;;;5020633;28;20086;-75
2023/09/18 02:55:32;;;;;;;45.17;38.30;;;;;;;;;;5019264;28;20056;-75
2023/09/18 02:57:59;;;;;;;45.92;38.53;;;;;;;;;;5033189;28;20057;-76
2023/09/18 03:00:25;;;;;;;40.83;36.47;;;;;;;;;;5038308;28;20044;-75
2023/09/18 03:02:51;;;;;;;44.17;37.63;;;;;;;;;;5014261;28;20037;-75
2023/09/18 03:05:17;;;;;;;37.20;33.05;;;;;;;;;;4985778;28;20048;-76
2023/09/18 03:07:44;;;;;;;43.00;35.95;;;;;;;;;;5016945;28;20056;-76
2023/09/18 03:10:13;;;;;;;38.50;34.10;;;;;;;;;;5023476;28;20066;-77
2023/09/18 03:12:40;;;;;;;41.40;35.33;;;;;;;;;;5022729;28;20041;-75
2023/09/18 03:15:06;;;;;;;41.15;35.78;;;;;;;;;;5015303;28;20448;-75
2023/09/18 03:17:33;;;;;;;38.67;34.00;;;;;;;;;;5022436;28;20080;-76
2023/09/18 03:19:59;;;;;;;39.25;34.22;;;;;;;;;;5035425;28;20045;-75
2023/09/18 03:22:26;;;;;;;43.40;36.28;;;;;;;;;;5016575;28;20291;-76
2023/09/18 03:24:52;;;;;;;38.17;33.97;;;;;;;;;;5021332;28;20047;-76
2023/09/18 03:27:18;;;;;;;39.83;35.20;;;;;;;;;;5017331;28;20052;-75
2023/09/18 03:29:44;;;;;;;40.03;35.67;;;;;;;;;;5035685;28;20056;-76
2023/09/18 03:32:12;;;;;;;44.53;37.28;;;;;;;;;;5005537;28;20048;-76
2023/09/18 03:34:38;;;;;;;43.95;37.67;;;;;;;;;;5018219;28;20461;-76
2023/09/18 03:37:04;;;;;;;47.05;39.17;;;;;;;;;;5020884;28;20206;-76
2023/09/18 03:39:30;;;;;;;47.40;40.42;;;;;;;;;;5019058;28;20052;-76
2023/09/18 03:41:56;;;;;;;45.05;40.03;;;;;;;;;;5018557;28;20044;-76
2023/09/18 03:44:22;;;;;;;44.10;38.15;;;;;;;;;;5013821;28;20036;-75
2023/09/18 03:46:48;;;;;;;46.60;40.17;;;;;;;;;;5012325;28;20043;-75
2023/09/18 03:49:14;;;;;;;47.92;39.47;;;;;;;;;;4996514;28;20169;-76
2023/09/18 03:51:40;;;;;;;43.65;38.90;;;;;;;;;;5014382;28;20467;-75
2023/09/18 03:54:07;;;;;;;46.85;38.70;;;;;;;;;;5011406;28;20045;-75
2023/09/18 03:56:33;;;;;;;47.00;37.83;;;;;;;;;;4997586;28;20401;-75
2023/09/18 03:59:00;;;;;;;40.92;36.47;;;;;;;;;;4998456;28;20130;-75
2023/09/18 04:01:27;;;;;;;43.08;38.17;;;;;;;;;;5014853;28;20052;-75
2023/09/18 04:03:54;;;;;;;42.63;37.95;;;;;;;;;;5015848;28;20127;-75
2023/09/18 04:06:23;;;;;;;43.40;37.47;;;;;;;;;;4996248;28;20438;-75
2023/09/18 04:08:50;;;;;;;45.95;39.40;;;;;;;;;;5011128;28;20079;-75
2023/09/18 04:11:16;;;;;;;47.58;39.35;;;;;;;;;;5018052;28;20056;-75
2023/09/18 04:13:42;;;;;;;45.88;38.55;;;;;;;;;;5015220;28;20122;-76
2023/09/18 04:16:08;;;;;;;47.67;37.33;;;;;;;;;;5016163;28;20132;-76
2023/09/18 04:18:34;;;;;;;45.70;37.78;;;;;;;;;;5018078;28;20041;-76
2023/09/18 04:21:00;;;;;;;50.05;38.28;;;;;;;;;;5001502;28;20055;-74
2023/09/18 04:23:27;;;;;;;45.28;36.88;;;;;;;;;;5021892;28;20595;-74
2023/09/18 04:25:54;;;;;;;43.20;36.65;;;;;;;;;;4998497;28;20144;-74
2023/09/18 04:28:21;;;;;;;42.97;38.00;;;;;;;;;;5012018;28;21588;-74
2023/09/18 04:30:47;;;;;;;41.70;37.20;;;;;;;;;;4993136;28;20053;-75
2023/09/18 04:33:14;;;;;;;43.95;37.67;;;;;;;;;;5011058;28;20123;-74
2023/09/18 04:35:40;;;;;;;44.67;38.45;;;;;;;;;;5011930;28;20044;-74
2023/09/18 04:38:08;;;;;;;44.40;36.22;;;;;;;;;;5015920;28;20041;-74
2023/09/18 04:40:34;;;;;;;43.25;35.65;;;;;;;;;;5022756;28;20048;-74
2023/09/18 04:43:01;;;;;;;45.45;36.00;;;;;;;;;;5008965;28;20041;-74
2023/09/18 04:45:27;;;;;;;40.25;34.95;;;;;;;;;;5027857;28;20085;-74
2023/09/18 04:47:54;;;;;;;44.42;34.22;;;;;;;;;;5010115;28;20503;-74
2023/09/18 04:50:20;;;;;;;37.08;33.05;;;;;;;;;;5003021;28;20400;-75
2023/09/18 04:52:46;;;;;;;40.13;33.15;;;;;;;;;;5020487;28;20151;-74
2023/09/18 04:55:13;;;;;;;38.28;33.58;;;;;;;;;;5018473;28;20045;-74
2023/09/18 04:57:40;;;;;;;39.97;32.85;;;;;;;;;;5014969;28;20056;-74
2023/09/18 05:00:12;;;;;;;43.30;31.58;;;;;;;;;;5025377;28;20055;-74
2023/09/18 05:02:38;;;;;;;38.78;31.70;;;;;;;;;;5023675;28;20052;-74
2023/09/18 05:05:05;;;;;;;41.17;31.45;;;;;;;;;;5020352;28;20044;-74
2023/09/18 05:07:32;;;;;;;36.28;29.52;;;;;;;;;;5023110;28;20044;-74
2023/09/18 05:09:58;;;;;;;38.92;29.98;;;;;;;;;;5020896;28;20404;-74
2023/09/18 05:12:24;;;;;;;36.65;29.52;;;;;;;;;;5018444;28;20052;-75
2023/09/18 05:14:51;;;;;;;37.08;29.25;;;;;;;;;;5019119;28;21938;-74
2023/09/18 05:17:18;;;;;;;33.05;27.45;;;;;;;;;;4991567;28;20083;-74
2023/09/18 05:19:44;;;;;;;38.03;28.92;;;;;;;;;;5008564;28;20493;-73
2023/09/18 05:22:11;;;;;;;33.88;28.90;;;;;;;;;;5021855;28;20126;-74
2023/09/18 05:24:38;;;;;;;35.60;28.48;;;;;;;;;;5004338;28;20037;-75
2023/09/18 05:27:06;;;;;;;35.33;28.02;;;;;;;;;;5024860;28;21967;-75
2023/09/18 05:29:32;;;;;;;35.65;26.73;;;;;;;;;;5002572;28;20103;-75
2023/09/18 05:31:58;;;;;;;30.02;25.83;;;;;;;;;;5022077;28;20075;-75
2023/09/18 05:34:24;;;;;;;27.20;23.88;;;;;;;;;;5019210;28;20435;-77
2023/09/18 05:36:51;;;;;;;28.65;23.83;;;;;;;;;;5024994;28;20251;-78
2023/09/18 05:39:18;;;;;;;28.23;24.55;;;;;;;;;;5021056;28;20087;-77
2023/09/18 05:41:44;;;;;;;29.38;23.95;;;;;;;;;;5024915;28;20503;-78
2023/09/18 05:44:10;;;;;;;29.38;23.50;;;;;;;;;;5006250;28;20059;-76
2023/09/18 05:46:36;;;;;;;26.48;22.55;;;;;;;;;;5006820;28;20060;-78
2023/09/18 05:49:05;;;;;;;25.05;21.42;;;;;;;;;;5022478;28;20075;-78
2023/09/18 05:51:32;;;;;;;25.20;22.42;;;;;;;;;;5019940;28;20223;-77
2023/09/18 05:53:58;;;;;;;26.73;20.75;;;;;;;;;;5025036;28;20052;-78
2023/09/18 05:56:25;;;;;;;24.27;20.35;;;;;;;;;;5023487;28;20568;-77
2023/09/18 05:58:51;;;;;;;24.90;20.92;;;;;;;;;;5023812;28;21552;-77
2023/09/18 06:01:17;;;;;;;22.05;19.77;;;;;;;;;;5005887;28;20047;-76
2023/09/18 06:03:43;;;;;;;24.90;20.92;;;;;;;;;;5015815;28;20040;-74
2023/09/18 06:06:09;;;;;;;25.27;20.58;;;;;;;;;;5020888;28;20163;-75
2023/09/18 06:08:35;;;;;;;27.58;21.40;;;;;;;;;;5025673;28;20041;-74
2023/09/18 06:11:01;;;;;;;22.17;16.95;;;;;;;;;;5028373;28;20055;-74
2023/09/18 06:13:28;;;;;;;18.20;16.20;;;;;;;;;;5028866;28;20045;-80
2023/09/18 06:15:54;;;;;;;18.23;13.23;;;;;;;;;;5023951;28;20646;-79
2023/09/18 06:18:21;;;;;;;18.33;13.45;;;;;;;;;;5021876;28;21650;-78
2023/09/18 06:20:47;;;;;;;17.13;13.57;;;;;;;;;;5025148;28;20048;-78
2023/09/18 06:23:14;;;;;;;16.58;12.73;;;;;;;;;;5022696;28;20045;-78
2023/09/18 06:25:40;;;;;;;18.27;14.02;;;;;;;;;;5021637;28;20325;-78
2023/09/18 06:28:06;;;;;;;14.63;12.20;;;;;;;;;;5026518;28;20471;-78
2023/09/18 06:30:33;;;;;;;15.10;11.82;;;;;;;;;;5016020;28;20045;-80
2023/09/18 06:33:00;;;;;;;16.60;11.90;;;;;;;;;;5010078;28;20405;-78
2023/09/18 06:35:26;;;;;;;17.88;12.73;;;;;;;;;;5029782;28;20075;-79
2023/09/18 06:37:54;;;;;;;16.88;13.20;;;;;;;;;;5010484;28;20048;-79
2023/09/18 06:40:20;;;;;;;17.17;12.25;;;;;;;;;;5029603;28;20434;-80
2023/09/18 06:42:46;;;;;;;16.13;12.02;;;;;;;;;;5032182;28;20068;-79
2023/09/18 06:45:13;;;;;;;18.02;12.90;;;;;;;;;;5031491;28;20045;-81
2023/09/18 06:47:40;;;;;;;23.35;13.95;;;;;;;;;;5029433;28;20059;-80
2023/09/18 06:50:07;;;;;;;16.98;14.20;;;;;;;;;;5030897;28;20087;-80
2023/09/18 06:52:33;;;;;;;21.92;15.35;;;;;;;;;;5031385;28;20041;-79
2023/09/18 06:54:59;;;;;;;18.80;14.40;;;;;;;;;;5030403;28;20095;-78
2023/09/18 06:57:25;;;;;;;17.08;14.10;;;;;;;;;;5033179;28;20413;-78
2023/09/18 06:59:51;;;;;;;18.58;13.05;;;;;;;;;;5035871;28;20455;-79
2023/09/18 07:02:17;;;;;;;29.88;15.82;;;;;;;;;;5031545;28;20056;-82
2023/09/18 07:04:46;;;;;;;26.60;15.55;;;;;;;;;;5015803;28;20440;-82
2023/09/18 07:07:13;;;;;;;23.58;14.48;;;;;;;;;;5014216;28;20048;-84
2023/09/18 07:09:40;;;;;;;20.60;14.13;;;;;;;;;;4999265;28;20927;-86
2023/09/18 07:12:06;;;;;;;22.42;15.18;;;;;;;;;;5032743;28;20468;-76
2023/09/18 07:14:32;;;;;;;16.45;14.68;;;;;;;;;;5015759;28;20053;-81
2023/09/18 07:17:00;;;;;;;27.67;16.05;;;;;;;;;;5031596;28;20107;-79
2023/09/18 07:19:26;;;;;;;25.52;18.27;;;;;;;;;;5032236;28;20366;-80
2023/09/18 07:21:52;;;;;;;20.52;16.77;;;;;;;;;;5030380;28;20044;-79
2023/09/18 07:24:20;;;;;;;20.60;16.20;;;;;;;;;;5031157;28;20782;-77
2023/09/18 07:26:47;;;;;;;22.38;16.50;;;;;;;;;;5010736;28;20099;-77
2023/09/18 07:29:14;;;;;;;20.98;16.40;;;;;;;;;;5032861;28;20450;-77
2023/09/18 07:31:41;;;;;;;23.55;16.80;;;;;;;;;;5030397;28;20052;-77
2023/09/18 07:34:07;;;;;;;17.83;14.38;;;;;;;;;;5029072;28;20045;-84
2023/09/18 07:36:33;;;;;;;19.33;14.35;;;;;;;;;;5029628;28;20037;-84
2023/09/18 07:38:59;;;;;;;31.08;15.15;;;;;;;;;;5029843;28;20480;-77
2023/09/18 07:41:25;;;;;;;27.88;16.23;;;;;;;;;;5033787;28;20076;-78
2023/09/18 07:43:51;;;;;;;24.55;18.08;;;;;;;;;;5034589;28;20049;-79
2023/09/18 07:46:17;;;;;;;34.08;21.65;;;;;;;;;;5031106;28;20049;-80
2023/09/18 07:48:43;;;;;;;38.30;22.42;;;;;;;;;;5016190;28;20102;-81
2023/09/18 07:51:13;;;;;;;37.17;22.60;;;;;;;;;;5047127;28;20041;-84
2023/09/18 07:53:40;;;;;;;38.63;25.35;;;;;;;;;;5031023;28;20068;-84
2023/09/18 07:56:06;;;;;;;42.10;25.38;;;;;;;;;;5031396;28;20485;-84
2023/09/18 07:58:33;;;;;;;47.78;28.42;;;;;;;;;;5013758;28;20041;-84
2023/09/18 08:00:59;;;;;;;56.22;30.40;;;;;;;;;;5020156;28;20037;-84
2023/09/18 08:03:26;;;;;;;55.03;30.10;;;;;;;;;;5029414;28;20060;-85
2023/09/18 08:05:55;;;;;;;38.72;25.15;;;;;;;;;;5033649;28;20128;-86
2023/09/18 08:08:23;;;;;;;50.17;26.75;;;;;;;;;;5015459;28;20091;-86
2023/09/18 08:10:49;;;;;;;46.88;26.38;;;;;;;;;;5015899;28;20048;-86
2023/09/18 08:13:15;;;;;;;38.00;23.83;;;;;;;;;;5033769;28;20110;-85
2023/09/18 08:15:42;;;;;;;34.38;22.42;;;;;;;;;;5034760;28;20491;-85
2023/09/18 08:18:08;;;;;;;35.58;22.83;;;;;;;;;;5049918;28;20497;-83
2023/09/18 08:20:36;;;;;;;35.45;22.48;;;;;;;;;;5033834;28;20060;-83
2023/09/18 08:23:05;;;;;;;40.92;22.67;;;;;;;;;;5017329;28;20480;-83
2023/09/18 08:25:31;;;;;;;39.95;24.58;;;;;;;;;;5018591;28;20045;-82
2023/09/18 08:27:57;;;;;;;37.40;23.33;;;;;;;;;;5033493;28;20131;-82
2023/09/18 08:30:24;;;;;;;40.58;24.20;;;;;;;;;;5034167;28;20133;-82
2023/09/18 08:32:50;;;;;;;40.22;23.02;;;;;;;;;;5017398;28;20160;-83
2023/09/18 08:35:16;;;;;;;34.20;22.77;;;;;;;;;;5033873;28;20496;-83
2023/09/18 08:37:43;;;;;;;36.47;22.75;;;;;;;;;;5037255;28;20099;-81
2023/09/18 08:40:13;;;;;;;36.55;22.65;;;;;;;;;;5035214;28;20045;-83
2023/09/18 08:42:48;;;;;;;29.70;21.65;;;;;;;;;;5034276;28;20090;-83
2023/09/18 08:45:33;;;;;;;32.20;22.33;;;;;;;;;;5017751;28;20067;-85
2023/09/18 08:47:59;;;;;;;36.30;21.38;;;;;;;;;;5014769;28;20076;-85
2023/09/18 08:50:25;;;;;;;32.10;21.15;;;;;;;;;;5033855;28;20048;-83
2023/09/18 08:52:52;;;;;;;39.13;21.25;;;;;;;;;;5022660;28;20305;-83
2023/09/18 08:55:18;;;;;;;29.20;20.02;;;;;;;;;;5016540;28;20053;-84
2023/09/18 08:57:45;;;;;;;30.38;20.40;;;;;;;;;;5031932;28;20053;-84
2023/09/18 09:00:16;;;;;;;34.33;22.58;;;;;;;;;;5034992;28;20381;-83
2023/09/18 09:02:43;;;;;;;31.85;21.25;;;;;;;;;;5030646;28;20067;-83
2023/09/18 09:05:09;;;;;;;32.45;21.55;;;;;;;;;;5029570;28;22433;-83
2023/09/18 09:07:35;;;;;;;26.23;20.75;;;;;;;;;;5017031;28;20055;-84
2023/09/18 09:10:01;;;;;;;31.20;21.38;;;;;;;;;;5025973;28;20053;-84
2023/09/18 09:12:46;;;;;;;27.05;20.77;;;;;;;;;;5034206;28;20052;-78
2023/09/18 09:15:12;;;;;;;29.30;19.88;;;;;;;;;;5033348;28;20047;-78
2023/09/18 09:17:39;;;;;;;28.20;19.17;;;;;;;;;;5030445;28;20177;-78
2023/09/18 09:20:12;;;;;;;29.30;19.50;;;;;;;;;;5032914;28;20222;-78
2023/09/18 09:22:42;;;;;;;32.30;21.92;;;;;;;;;;5013918;28;20175;-78
2023/09/18 09:25:20;;;;;;;31.98;23.48;;;;;;;;;;5034395;28;20156;-78
2023/09/18 09:27:46;;;;;;;31.67;23.00;;;;;;;;;;5032072;28;20052;-79
2023/09/18 09:30:18;;;;;;;35.35;22.80;;;;;;;;;;5030921;28;20179;-79
2023/09/18 09:32:47;;;;;;;31.08;22.02;;;;;;;;;;5028988;28;20259;-79
2023/09/18 09:35:19;;;;;;;31.90;22.60;;;;;;;;;;5035043;28;20047;-78
2023/09/18 09:37:45;;;;;;;32.80;22.40;;;;;;;;;;5032274;28;20048;-79
2023/09/18 09:40:14;;;;;;;30.65;20.90;;;;;;;;;;5033509;28;20764;-79
2023/09/18 09:42:43;;;;;;;28.35;19.60;;;;;;;;;;5015675;28;20091;-86
2023/09/18 09:45:15;;;;;;;29.27;19.38;;;;;;;;;;5034248;28;21648;-85
2023/09/18 09:47:42;;;;;;;27.67;20.27;;;;;;;;;;5033209;28;20456;-79
2023/09/18 09:50:10;;;;;;;32.38;23.42;;;;;;;;;;5047726;28;20142;-78
2023/09/18 09:52:37;;;;;;;35.17;21.67;;;;;;;;;;5035897;28;20045;-84
2023/09/18 09:55:05;;;;;;;33.30;23.75;;;;;;;;;;5015312;28;20070;-85
2023/09/18 09:57:31;;;;;;;29.40;22.40;;;;;;;;;;5022966;28;20049;-85
2023/09/18 10:00:21;;;;;;;32.55;22.48;;;;;;;;;;5032679;28;20756;-80
2023/09/18 10:02:48;;;;;;;30.40;21.75;;;;;;;;;;5030501;28;20489;-82
2023/09/18 10:05:15;;;;;;;32.00;22.33;;;;;;;;;;5028634;28;20036;-80
2023/09/18 10:07:41;;;;;;;29.63;23.00;;;;;;;;;;5028882;28;20587;-81
2023/09/18 10:10:08;;;;;;;33.15;23.15;;;;;;;;;;5004837;28;20045;-81
2023/09/18 10:12:34;;;;;;;30.20;23.02;;;;;;;;;;5015485;28;20047;-81
2023/09/18 10:15:01;;;;;;;31.35;23.52;;;;;;;;;;5032973;28;20056;-81
2023/09/18 10:17:29;;;;;;;30.85;23.10;;;;;;;;;;5030869;28;20045;-81
2023/09/18 10:20:26;;;;;;;32.85;23.77;;;;;;;;;;5013445;28;20067;-80
2023/09/18 10:22:53;;;;;;;33.90;24.23;;;;;;;;;;5030304;28;20118;-79
2023/09/18 10:25:22;;;;;;;30.40;23.98;;;;;;;;;;5012236;28;20132;-83
2023/09/18 10:28:02;;;;;;;33.25;24.67;;;;;;;;;;5013244;28;20148;-83
2023/09/18 10:30:30;;;;;;;34.03;23.85;;;;;;;;;;5012993;28;20051;-84
2023/09/18 10:32:59;;;;;;;30.85;22.40;;;;;;;;;;5032546;28;20051;-82
2023/09/18 10:35:25;;;;;;;23.83;21.05;;;;;;;;;;5027846;28;20052;-81
2023/09/18 10:37:54;;;;;;;24.80;20.85;;;;;;;;;;5019185;28;20048;-81
2023/09/18 10:40:22;;;;;;;29.67;22.50;;;;;;;;;;5008723;28;20045;-81
2023/09/18 10:42:48;;;;;;;26.67;21.45;;;;;;;;;;5027584;28;20049;-82
2023/09/18 10:45:15;;;;;;;26.58;21.92;;;;;;;;;;5028873;28;20048;-81
2023/09/18 10:47:47;;;;;;;23.17;20.27;;;;;;;;;;5027359;28;20076;-80
2023/09/18 10:50:22;;;;;;;23.00;20.63;;;;;;;;;;5042444;28;20051;-80
2023/09/18 10:52:48;;;;;;;20.85;18.63;;;;;;;;;;5044962;28;20049;-81
2023/09/18 10:55:15;;;;;;;23.23;18.95;;;;;;;;;;5011469;28;20052;-79
2023/09/18 10:57:58;;;;;;;22.73;19.50;;;;;;;;;;5023803;28;20523;-81
2023/09/18 11:00:28;;;;;;;26.30;20.17;;;;;;;;;;5028555;28;20175;-81
2023/09/18 11:03:09;;;;;;;21.75;18.20;;;;;;;;;;5026820;28;20148;-81
2023/09/18 11:05:36;;;;;;;21.88;18.50;;;;;;;;;;5026497;28;20534;-81
2023/09/18 11:08:21;;;;;;;20.20;17.83;;;;;;;;;;5029105;28;20044;-80
2023/09/18 11:11:16;;;;;;;20.50;18.42;;;;;;;;;;5028070;28;20075;-81
2023/09/18 11:13:45;;;;;;;17.33;14.07;;;;;;;;;;4992439;28;20060;-80
2023/09/18 11:16:26;;;;;;;16.75;14.77;;;;;;;;;;5027683;28;20045;-77
2023/09/18 11:18:58;;;;;;;13.38;11.95;;;;;;;;;;5022766;28;20475;-78
2023/09/18 11:21:28;;;;;;;15.02;13.40;;;;;;;;;;5024616;28;20071;-78
2023/09/18 11:24:01;;;;;;;14.05;12.43;;;;;;;;;;5029583;28;20534;-80
2023/09/18 11:26:31;;;;;;;22.05;10.25;;;;;;;;;;5025441;28;20051;-80
2023/09/18 11:29:04;;;;;;;9.52;8.25;;;;;;;;;;5008493;28;20060;-80
2023/09/18 11:31:45;;;;;;;9.05;6.93;;;;;;;;;;5029230;28;20044;-80
2023/09/18 11:34:12;;;;;;;9.95;6.90;;;;;;;;;;5026367;28;20049;-80
2023/09/18 11:36:38;;;;;;;11.00;7.15;;;;;;;;;;5027289;28;21717;-83
2023/09/18 11:39:04;;;;;;;9.10;6.70;;;;;;;;;;5026574;28;20045;-79
2023/09/18 11:41:32;;;;;;;8.10;6.28;;;;;;;;;;5001386;28;20044;-81
2023/09/18 11:44:07;;;;;;;7.05;6.07;;;;;;;;;;5025930;28;20087;-78
2023/09/18 11:46:40;;;;;;;7.88;6.50;;;;;;;;;;5030416;28;20048;-77
2023/09/18 11:49:12;;;;;;;7.53;6.28;;;;;;;;;;5029928;28;20535;-89
2023/09/18 11:51:41;;;;;;;8.02;6.15;;;;;;;;;;5015938;28;21997;-75
2023/09/18 11:54:09;;;;;;;6.90;6.20;;;;;;;;;;5029439;28;20542;-75
2023/09/18 11:56:35;;;;;;;7.70;5.57;;;;;;;;;;5007842;28;20052;-74
2023/09/18 11:59:14;;;;;;;6.22;5.28;;;;;;;;;;5013222;28;20413;-86
2023/09/18 12:01:40;;;;;;;6.20;4.50;;;;;;;;;;5030475;28;20044;-77
2023/09/18 12:04:11;;;;;;;5.88;4.45;;;;;;;;;;5009224;28;20045;-79
2023/09/18 12:06:39;;;;;;;11.20;5.25;;;;;;;;;;5028361;28;20080;-78
2023/09/18 12:09:06;;;;;;;5.65;3.85;;;;;;;;;;5006248;28;20480;-76
2023/09/18 12:11:35;;;;;;;7.70;4.65;;;;;;;;;;5019116;28;20087;-76
2023/09/18 12:14:05;;;;;;;7.28;4.70;;;;;;;;;;4999555;28;20041;-83
2023/09/18 12:16:31;;;;;;;5.80;4.20;;;;;;;;;;4999821;28;20049;-75
2023/09/18 12:18:59;;;;;;;7.68;4.78;;;;;;;;;;5003717;28;20037;-84
2023/09/18 12:21:25;;;;;;;5.60;3.85;;;;;;;;;;5009234;28;20493;-75
2023/09/18 12:23:51;;;;;;;11.27;4.55;;;;;;;;;;5031932;28;20796;-77
2023/09/18 12:26:20;;;;;;;4.28;3.85;;;;;;;;;;5015552;28;20048;-74
2023/09/18 12:28:52;;;;;;;5.28;4.05;;;;;;;;;;5029476;28;20049;-87
2023/09/18 12:31:18;;;;;;;8.13;4.47;;;;;;;;;;5033304;28;20591;-79
2023/09/18 12:33:47;;;;;;;5.13;4.00;;;;;;;;;;5029615;28;20056;-75
2023/09/18 12:36:14;;;;;;;8.10;4.38;;;;;;;;;;5005513;28;20054;-81
2023/09/18 12:38:40;;;;;;;7.47;4.30;;;;;;;;;;5030948;28;20892;-74
2023/09/18 12:41:07;;;;;;;8.95;4.90;;;;;;;;;;5028819;28;20091;-78
2023/09/18 12:44:05;;;;;;;6.80;4.20;;;;;;;;;;5001563;28;20526;-75
2023/09/18 12:46:31;;;;;;;9.15;4.30;;;;;;;;;;5019397;28;20064;-74
2023/09/18 12:48:58;;;;;;;4.80;4.00;;;;;;;;;;5013806;28;20059;-81
2023/09/18 12:51:34;;;;;;;6.75;4.22;;;;;;;;;;5014876;28;20377;-74
2023/09/18 12:54:06;;;;;;;6.53;3.67;;;;;;;;;;5029455;28;20083;-74
2023/09/18 12:56:32;;;;;;;8.40;4.25;;;;;;;;;;5010860;28;20057;-77
2023/09/18 12:58:59;;;;;;;4.72;4.18;;;;;;;;;;5033093;28;20139;-74
2023/09/18 13:01:25;;;;;;;5.22;3.90;;;;;;;;;;5033660;28;20040;-80
2023/09/18 13:03:57;;;;;;;8.15;4.55;;;;;;;;;;5031138;28;20048;-81
2023/09/18 13:06:24;;;;;;;11.25;4.07;;;;;;;;;;5005569;28;20577;-75
2023/09/18 13:08:53;;;;;;;9.13;4.93;;;;;;;;;;5033025;28;20404;-80
2023/09/18 13:11:19;;;;;;;6.55;4.30;;;;;;;;;;5016094;28;20075;-79
2023/09/18 13:13:45;;;;;;;7.45;4.85;;;;;;;;;;5033360;28;22027;-79
2023/09/18 13:16:11;;;;;;;8.70;4.80;;;;;;;;;;5015699;28;20056;-76
2023/09/18 13:18:40;;;;;;;5.25;4.35;;;;;;;;;;5035342;28;20049;-82
2023/09/18 13:21:13;;;;;;;4.93;4.18;;;;;;;;;;5029751;28;20036;-82
2023/09/18 13:23:40;;;;;;;4.35;3.00;;;;;;;;;;5005702;28;20044;-76
2023/09/18 13:26:07;;;;;;;4.60;3.85;;;;;;;;;;5016601;28;20469;-81
2023/09/18 13:28:35;;;;;;;7.45;3.90;;;;;;;;;;5038544;28;20048;-83
2023/09/18 13:31:04;;;;;;;3.88;3.30;;;;;;;;;;5040046;28;20049;-80
2023/09/18 13:33:37;;;;;;;8.90;3.75;;;;;;;;;;5034537;28;20081;-82
2023/09/18 13:36:03;;;;;;;3.63;3.30;;;;;;;;;;4997242;28;20043;-77
2023/09/18 13:38:29;;;;;;;8.15;3.75;;;;;;;;;;5030709;28;20045;-78
2023/09/18 13:40:55;;;;;;;4.13;2.80;;;;;;;;;;5030534;28;21928;-77
2023/09/18 13:43:22;;;;;;;6.15;3.58;;;;;;;;;;5031038;28;20049;-79
2023/09/18 13:45:51;;;;;;;4.88;3.50;;;;;;;;;;5003512;28;20476;-77
2023/09/18 13:48:18;;;;;;;7.60;3.40;;;;;;;;;;5035032;28;20051;-78
2023/09/18 13:50:45;;;;;;;4.28;3.03;;;;;;;;;;5030717;28;20087;-78
2023/09/18 13:53:11;;;;;;;7.45;3.47;;;;;;;;;;5030719;28;20407;-79
2023/09/18 13:55:37;;;;;;;5.47;2.97;;;;;;;;;;5032366;28;21730;-82
2023/09/18 13:58:03;;;;;;;5.70;4.05;;;;;;;;;;5016258;28;20087;-80
2023/09/18 14:00:30;;;;;;;4.40;3.00;;;;;;;;;;5030273;28;20037;-76
2023/09/18 14:02:57;;;;;;;5.45;4.00;;;;;;;;;;5031043;28;20053;-77
2023/09/18 14:05:23;;;;;;;6.18;3.72;;;;;;;;;;5007369;28;20760;-77
2023/09/18 14:08:22;;;;;;;10.55;4.30;;;;;;;;;;5031980;28;20044;-83
2023/09/18 14:11:12;;;;;;;5.40;4.15;;;;;;;;;;5012605;28;20048;-82
2023/09/18 14:13:50;;;;;;;5.65;3.88;;;;;;;;;;5030639;28;20049;-87
2023/09/18 14:16:19;;;;;;;5.97;3.63;;;;;;;;;;5037867;28;21438;-85
2023/09/18 14:18:45;;;;;;;4.47;3.40;;;;;;;;;;5006765;28;20568;-84
2023/09/18 14:21:40;;;;;;;4.95;3.83;;;;;;;;;;5023872;28;20066;-86
2023/09/18 14:24:26;;;;;;;6.53;4.07;;;;;;;;;;5014297;28;20041;-85
2023/09/18 14:26:55;;;;;;;4.22;3.78;;;;;;;;;;5002307;28;21735;-86